Minton, Canada
Current Conditions -  °F | °C
As of 2:15 AM on Thursday 27 Nov 2014 (Local Time) from KD50 Reporting Station
Overcast Overcast  
Wind Chill: -22°   Ceiling: 1700
Heat Index: -15°   Visibility: 10mi
Dew Point: -17°   Wind: 8mph
Humidity: 85%   Direction: 190°S
Pressure: 30.32"   Gusts: NA
Location:  49.17°N, 104.58°W
Report Text: KD50 270815Z AUTO 19007KT 10SM OVC017 M15/M17 A3032 RMK AO2
Loading
Personal Weather Stations






























Interactive Weather Map New forecast layout! Learn more

10-Day Weather Forecast

Advertisements
Track Severe Weather on mobile